Time;durP1;ratioP1;P1;durP2;ratioP2;P2;SDS_P1;SDS_P2;PMS_P1;PMS_P2;Temp;Humidity;BMP_temperature;BMP_pressure;BME280_temperature;BME280_humidity;BME280_pressure;Samples;Min_cycle;Max_cycle;Signal;HPM_P1;HPM_P2
2021/04/30 00:00:17;;;;;;;28.25;26.65;;;9.90;67.10;;;;;;5096182;28;20301;-76
2021/04/30 00:02:43;;;;;;;27.73;26.15;;;9.90;67.10;;;;;;5096343;28;20258;-76
2021/04/30 00:05:11;;;;;;;28.63;26.85;;;9.80;67.30;;;;;;5095845;28;20246;-76
2021/04/30 00:07:38;;;;;;;27.70;26.10;;;9.70;67.50;;;;;;5095641;28;20195;-77
2021/04/30 00:10:06;;;;;;;29.50;27.70;;;9.70;67.60;;;;;;5095850;28;20203;-76
2021/04/30 00:12:32;;;;;;;29.08;27.38;;;9.70;67.30;;;;;;5096177;28;20603;-77
2021/04/30 00:15:00;;;;;;;28.10;26.50;;;9.60;67.60;;;;;;5095614;28;20677;-76
2021/04/30 00:17:27;;;;;;;29.77;27.98;;;9.70;67.40;;;;;;5095327;28;20199;-77
2021/04/30 00:19:53;;;;;;;28.42;26.80;;;9.70;67.10;;;;;;5095622;28;20195;-76
2021/04/30 00:22:20;;;;;;;29.38;27.60;;;9.80;66.60;;;;;;5095667;28;20560;-76
2021/04/30 00:24:47;;;;;;;30.08;28.20;;;9.70;66.20;;;;;;5095609;28;20314;-77
2021/04/30 00:27:13;;;;;;;29.48;27.73;;;9.60;66.60;;;;;;5094693;28;20205;-77
2021/04/30 00:29:40;;;;;;;29.17;27.48;;;9.60;66.50;;;;;;5095769;28;20679;-76
2021/04/30 00:32:07;;;;;;;30.00;28.20;;;9.70;66.60;;;;;;5097191;28;20259;-77
2021/04/30 00:34:33;;;;;;;29.95;28.25;;;9.70;66.40;;;;;;5096065;28;20238;-77
2021/04/30 00:36:59;;;;;;;30.40;28.50;;;9.70;66.60;;;;;;5094835;28;20192;-77
2021/04/30 00:39:26;;;;;;;30.25;28.45;;;9.70;66.30;;;;;;5095191;28;20286;-77
2021/04/30 00:41:53;;;;;;;28.88;27.20;;;9.80;66.20;;;;;;5095159;28;20262;-77
2021/04/30 00:44:20;;;;;;;30.30;28.50;;;9.80;66.40;;;;;;5095021;28;20225;-77
2021/04/30 00:46:46;;;;;;;29.40;27.70;;;9.90;65.90;;;;;;5094612;28;20203;-77
2021/04/30 00:49:13;;;;;;;29.58;27.80;;;9.90;65.70;;;;;;5095091;28;20199;-76
2021/04/30 00:51:39;;;;;;;30.35;28.52;;;9.70;66.20;;;;;;5095210;28;20211;-77
2021/04/30 00:54:07;;;;;;;31.00;28.90;;;9.70;66.10;;;;;;5095050;28;20757;-76
2021/04/30 00:56:34;;;;;;;30.17;28.27;;;9.60;65.80;;;;;;5094640;28;20199;-76
2021/04/30 00:59:02;;;;;;;29.52;27.73;;;9.50;66.30;;;;;;5095557;28;20282;-77
2021/04/30 01:01:29;;;;;;;29.42;27.73;;;9.60;66.20;;;;;;5094675;28;20573;-77
2021/04/30 01:03:56;;;;;;;29.60;27.85;;;9.50;66.20;;;;;;5094571;28;20246;-76
2021/04/30 01:06:22;;;;;;;28.70;26.90;;;9.40;65.40;;;;;;5094405;28;20290;-77
2021/04/30 01:08:48;;;;;;;30.45;28.60;;;9.40;66.10;;;;;;5094740;28;20252;-77
2021/04/30 01:11:15;;;;;;;29.45;27.55;;;9.40;65.80;;;;;;5094583;28;20243;-77
2021/04/30 01:13:42;;;;;;;30.40;28.40;;;9.40;65.60;;;;;;5094648;28;20290;-76
2021/04/30 01:16:09;;;;;;;29.90;28.13;;;9.40;65.50;;;;;;5094024;28;20191;-76
2021/04/30 01:18:43;;;;;;;29.90;28.00;;;9.40;65.50;;;;;;5094362;28;20742;-76
2021/04/30 01:21:09;;;;;;;30.40;28.27;;;9.40;65.00;;;;;;5094732;28;20264;-77
2021/04/30 01:23:46;;;;;;;30.90;29.10;;;9.40;64.70;;;;;;5094441;28;20302;-77
2021/04/30 01:26:12;;;;;;;30.75;28.95;;;9.20;65.00;;;;;;5094167;28;20661;-76
2021/04/30 01:28:39;;;;;;;31.30;29.40;;;9.30;65.20;;;;;;5094083;28;20195;-77
2021/04/30 01:31:05;;;;;;;30.90;29.10;;;9.30;65.40;;;;;;5094331;28;21009;-76
2021/04/30 01:33:32;;;;;;;31.02;28.83;;;9.40;65.00;;;;;;5095255;28;20191;-77
2021/04/30 01:35:58;;;;;;;32.47;30.38;;;9.40;64.80;;;;;;5094956;28;20593;-77
2021/04/30 01:38:25;;;;;;;32.10;30.20;;;9.50;63.90;;;;;;5095527;28;20305;-77
2021/04/30 01:40:52;;;;;;;31.65;29.65;;;9.50;64.00;;;;;;5095211;28;20637;-77
2021/04/30 01:43:21;;;;;;;31.80;29.90;;;9.50;64.00;;;;;;5095002;28;20211;-77
2021/04/30 01:45:52;;;;;;;31.83;29.92;;;9.50;64.00;;;;;;5095317;28;20314;-76
2021/04/30 01:48:20;;;;;;;30.50;28.50;;;9.50;63.60;;;;;;5094296;28;20631;-76
2021/04/30 01:50:47;;;;;;;31.90;29.73;;;9.50;63.50;;;;;;5094056;28;20306;-77
2021/04/30 01:53:16;;;;;;;30.33;28.52;;;9.50;63.70;;;;;;5094241;28;20617;-77
2021/04/30 01:55:43;;;;;;;30.70;28.90;;;9.50;63.80;;;;;;5092763;28;20227;-77
2021/04/30 01:58:11;;;;;;;31.40;29.50;;;9.50;63.80;;;;;;5093978;28;20318;-76
2021/04/30 02:00:38;;;;;;;31.02;29.13;;;9.50;63.70;;;;;;5093881;28;20324;-76
2021/04/30 02:03:05;;;;;;;31.27;29.27;;;9.40;63.60;;;;;;5093959;28;20229;-76
2021/04/30 02:05:33;;;;;;;30.70;28.80;;;9.40;63.80;;;;;;5093099;28;20620;-76
2021/04/30 02:08:01;;;;;;;31.20;29.13;;;9.40;63.80;;;;;;5093905;28;20207;-77
2021/04/30 02:10:28;;;;;;;31.27;29.17;;;9.50;63.60;;;;;;5094029;28;20226;-77
2021/04/30 02:12:56;;;;;;;31.90;29.70;;;9.50;62.90;;;;;;5093620;28;20199;-77
2021/04/30 02:15:25;;;;;;;32.00;29.90;;;9.50;63.40;;;;;;5093109;28;20195;-77
2021/04/30 02:17:51;;;;;;;32.63;30.50;;;9.50;63.20;;;;;;5093123;28;20291;-77
2021/04/30 02:20:20;;;;;;;32.05;30.00;;;9.60;63.10;;;;;;5093132;28;20215;-77
2021/04/30 02:22:48;;;;;;;31.67;29.65;;;9.50;63.40;;;;;;5093156;28;20215;-77
2021/04/30 02:25:16;;;;;;;33.53;31.42;;;9.50;63.70;;;;;;5093022;28;20287;-77
2021/04/30 02:27:43;;;;;;;33.58;31.38;;;9.50;63.90;;;;;;5092144;28;20748;-77
2021/04/30 02:30:11;;;;;;;32.95;30.80;;;9.60;64.50;;;;;;5092803;28;20202;-78
2021/04/30 02:32:39;;;;;;;33.38;31.17;;;9.60;64.20;;;;;;5092950;28;20281;-77
2021/04/30 02:35:11;;;;;;;33.95;31.77;;;9.70;64.80;;;;;;5093022;28;20281;-77
2021/04/30 02:37:38;;;;;;;33.80;31.55;;;9.70;65.90;;;;;;5092527;28;20203;-77
2021/04/30 02:40:05;;;;;;;34.15;31.85;;;9.60;66.10;;;;;;5092727;28;20197;-77
2021/04/30 02:42:32;;;;;;;32.85;30.65;;;9.50;66.40;;;;;;5092795;28;20287;-77
2021/04/30 02:45:00;;;;;;;33.80;31.70;;;9.40;66.80;;;;;;5092771;28;20195;-77
2021/04/30 02:47:30;;;;;;;34.78;32.47;;;9.40;67.10;;;;;;5092361;28;20290;-77
2021/04/30 02:49:57;;;;;;;32.88;30.77;;;9.40;67.30;;;;;;5092585;28;20746;-77
2021/04/30 02:52:24;;;;;;;36.10;33.80;;;9.50;67.70;;;;;;5092604;28;20282;-77
2021/04/30 02:54:51;;;;;;;34.80;32.50;;;9.50;67.70;;;;;;5092621;28;20234;-77
2021/04/30 02:57:17;;;;;;;35.50;32.85;;;9.40;67.30;;;;;;5092224;28;20203;-77
2021/04/30 02:59:44;;;;;;;36.67;33.95;;;9.40;66.60;;;;;;5092752;28;20219;-77
2021/04/30 03:02:10;;;;;;;34.83;32.25;;;9.40;67.40;;;;;;5092520;28;20264;-77
2021/04/30 03:04:37;;;;;;;35.33;32.85;;;9.30;67.90;;;;;;5092296;28;20230;-77
2021/04/30 03:07:04;;;;;;;33.60;31.40;;;9.30;68.20;;;;;;5091418;28;20669;-77
2021/04/30 03:09:31;;;;;;;34.20;32.10;;;9.30;68.90;;;;;;5092045;28;20620;-77
2021/04/30 03:11:57;;;;;;;38.15;35.65;;;9.20;66.80;;;;;;5092409;28;20298;-77
2021/04/30 03:14:24;;;;;;;35.10;32.42;;;9.20;67.50;;;;;;5092523;28;20219;-77
2021/04/30 03:16:50;;;;;;;37.33;34.55;;;9.10;68.80;;;;;;5091845;28;20233;-77
2021/04/30 03:19:17;;;;;;;35.42;32.95;;;9.20;70.50;;;;;;5092377;28;20198;-78
2021/04/30 03:21:43;;;;;;;34.88;32.47;;;9.20;71.30;;;;;;5092392;28;20298;-77
2021/04/30 03:24:11;;;;;;;36.58;34.08;;;9.10;72.30;;;;;;5092213;28;20299;-75
2021/04/30 03:26:37;;;;;;;34.90;32.58;;;9.20;72.70;;;;;;5091196;28;20223;-75
2021/04/30 03:29:04;;;;;;;36.72;34.13;;;9.20;73.10;;;;;;5092259;28;20202;-75
2021/04/30 03:31:31;;;;;;;38.33;35.75;;;9.10;73.60;;;;;;5092107;28;20306;-76
2021/04/30 03:33:58;;;;;;;38.80;36.30;;;9.00;74.30;;;;;;5091797;28;20235;-76
2021/04/30 03:36:24;;;;;;;34.95;32.53;;;9.00;74.20;;;;;;5091816;28;20668;-76
2021/04/30 03:38:51;;;;;;;34.15;31.65;;;8.90;73.90;;;;;;5092038;28;20687;-76
2021/04/30 03:41:18;;;;;;;39.90;37.00;;;8.90;73.10;;;;;;5092141;28;20303;-76
2021/04/30 03:43:45;;;;;;;35.28;32.78;;;8.90;72.70;;;;;;5092038;28;20215;-76
2021/04/30 03:46:12;;;;;;;38.20;35.30;;;9.00;71.50;;;;;;5091474;28;20206;-77
2021/04/30 03:48:38;;;;;;;37.63;35.03;;;9.10;71.00;;;;;;5091821;28;20641;-76
2021/04/30 03:51:05;;;;;;;34.30;32.10;;;9.00;71.80;;;;;;5092101;28;20219;-76
2021/04/30 03:53:32;;;;;;;38.97;36.30;;;9.10;72.00;;;;;;5092235;28;20195;-76
2021/04/30 03:55:58;;;;;;;36.65;33.83;;;9.00;71.90;;;;;;5091459;28;20565;-76
2021/04/30 03:58:25;;;;;;;36.90;34.10;;;9.00;72.00;;;;;;5091943;28;20657;-76
2021/04/30 04:00:52;;;;;;;38.50;35.95;;;8.90;72.60;;;;;;5091714;28;20215;-77
2021/04/30 04:03:18;;;;;;;36.47;34.17;;;8.80;72.50;;;;;;5091654;28;20230;-76
2021/04/30 04:05:45;;;;;;;36.22;33.92;;;8.90;68.90;;;;;;5091406;28;20199;-76
2021/04/30 04:08:11;;;;;;;36.95;34.38;;;8.80;67.80;;;;;;5091765;28;20234;-77
2021/04/30 04:10:38;;;;;;;34.10;31.65;;;8.70;68.10;;;;;;5091780;28;20302;-76
2021/04/30 04:13:15;;;;;;;34.28;31.98;;;8.70;68.00;;;;;;5093029;28;20290;-79
2021/04/30 04:15:42;;;;;;;35.15;32.65;;;8.80;67.60;;;;;;5093297;28;20206;-78
2021/04/30 04:18:09;;;;;;;35.00;32.63;;;8.80;67.60;;;;;;5091913;28;20293;-77
2021/04/30 04:20:36;;;;;;;33.05;30.83;;;8.70;67.90;;;;;;5095133;28;20645;-79
2021/04/30 04:23:03;;;;;;;37.05;34.55;;;8.70;67.30;;;;;;5095561;28;20222;-77
2021/04/30 04:25:29;;;;;;;33.60;31.23;;;8.70;66.80;;;;;;5095046;28;20226;-77
2021/04/30 04:27:56;;;;;;;33.95;31.65;;;8.70;67.10;;;;;;5094719;28;20199;-77
2021/04/30 04:30:23;;;;;;;32.85;30.45;;;8.70;67.20;;;;;;5095232;28;20276;-77
2021/04/30 04:32:50;;;;;;;33.80;31.40;;;8.70;67.00;;;;;;5095221;28;20191;-78
2021/04/30 04:35:16;;;;;;;35.47;33.17;;;8.60;67.20;;;;;;5095599;28;20231;-77
2021/04/30 04:37:43;;;;;;;40.00;37.20;;;8.70;67.10;;;;;;5094753;28;20201;-77
2021/04/30 04:40:10;;;;;;;33.67;31.33;;;8.70;67.00;;;;;;5095059;28;20212;-77
2021/04/30 04:42:37;;;;;;;34.63;32.33;;;8.60;67.50;;;;;;5095152;28;20194;-78
2021/04/30 04:45:04;;;;;;;34.22;31.90;;;8.70;67.40;;;;;;5095157;28;20191;-77
2021/04/30 04:47:30;;;;;;;38.38;35.58;;;8.80;67.40;;;;;;5094642;28;20236;-77
2021/04/30 04:49:58;;;;;;;35.30;32.80;;;8.80;67.60;;;;;;5094845;28;20706;-77
2021/04/30 04:52:24;;;;;;;35.10;32.60;;;8.80;67.20;;;;;;5095266;28;20287;-77
2021/04/30 04:54:51;;;;;;;35.58;32.97;;;8.80;67.30;;;;;;5094796;28;20244;-77
2021/04/30 04:57:17;;;;;;;34.80;32.20;;;8.80;67.40;;;;;;5094313;28;20195;-77
2021/04/30 04:59:43;;;;;;;38.20;35.60;;;8.90;66.90;;;;;;5094924;28;20321;-77
2021/04/30 05:02:10;;;;;;;36.28;33.47;;;8.90;67.10;;;;;;5094825;28;20271;-77
2021/04/30 05:04:36;;;;;;;38.05;34.80;;;8.90;66.80;;;;;;5094667;28;20215;-77
2021/04/30 05:07:04;;;;;;;34.50;31.92;;;8.90;67.10;;;;;;5094334;28;20256;-77
2021/04/30 05:09:30;;;;;;;35.20;32.70;;;9.00;67.30;;;;;;5094572;28;20325;-77
2021/04/30 05:11:56;;;;;;;35.25;32.35;;;8.80;67.40;;;;;;5094574;28;20262;-77
2021/04/30 05:14:23;;;;;;;35.83;33.25;;;8.80;67.80;;;;;;5094588;28;20664;-79
2021/04/30 05:16:50;;;;;;;37.70;34.97;;;8.70;68.20;;;;;;5094030;28;20222;-77
2021/04/30 05:19:16;;;;;;;36.17;33.33;;;8.80;68.10;;;;;;5094495;28;20675;-77
2021/04/30 05:21:45;;;;;;;35.72;33.05;;;8.80;68.20;;;;;;5094365;28;20225;-77
2021/04/30 05:24:13;;;;;;;42.25;39.55;;;8.90;68.20;;;;;;5094231;28;20219;-77
2021/04/30 05:26:39;;;;;;;35.75;33.20;;;9.00;67.90;;;;;;5093414;28;20287;-77
2021/04/30 05:29:05;;;;;;;39.28;36.70;;;9.00;68.10;;;;;;5094296;28;20209;-77
2021/04/30 05:31:32;;;;;;;36.33;33.58;;;9.00;68.00;;;;;;5093171;28;20222;-77
2021/04/30 05:33:59;;;;;;;36.17;33.67;;;9.00;68.20;;;;;;5093988;28;20215;-78
2021/04/30 05:36:25;;;;;;;34.00;31.70;;;9.10;67.50;;;;;;5093725;28;20238;-77
2021/04/30 05:38:52;;;;;;;36.80;34.00;;;9.20;66.20;;;;;;5093971;28;20748;-78
2021/04/30 05:41:19;;;;;;;35.25;32.90;;;9.30;65.60;;;;;;5093932;28;20692;-77
2021/04/30 05:43:45;;;;;;;36.42;33.40;;;9.40;65.00;;;;;;5093983;28;20211;-77
2021/04/30 05:46:12;;;;;;;35.45;33.03;;;9.50;64.90;;;;;;5093464;28;20202;-77
2021/04/30 05:48:38;;;;;;;36.50;33.88;;;9.50;64.70;;;;;;5093989;28;20294;-77
2021/04/30 05:51:05;;;;;;;37.90;35.20;;;9.50;65.00;;;;;;5094109;28;20356;-77
2021/04/30 05:53:32;;;;;;;34.65;32.35;;;9.50;64.90;;;;;;5093817;28;20295;-79
2021/04/30 05:55:58;;;;;;;36.92;34.28;;;9.40;65.20;;;;;;5093152;28;20657;-77
2021/04/30 05:58:25;;;;;;;35.00;32.67;;;9.40;65.40;;;;;;5094309;28;20217;-77
2021/04/30 06:00:52;;;;;;;36.97;34.38;;;9.40;65.40;;;;;;5093682;28;20219;-77
2021/04/30 06:03:18;;;;;;;37.13;34.53;;;9.50;65.60;;;;;;5093756;28;20634;-77
2021/04/30 06:05:45;;;;;;;34.78;32.42;;;9.70;65.40;;;;;;5093007;28;20255;-77
2021/04/30 06:08:11;;;;;;;36.30;33.70;;;9.80;65.50;;;;;;5093702;28;20199;-77
2021/04/30 06:10:38;;;;;;;35.30;32.95;;;9.70;65.60;;;;;;5093450;28;20215;-78
2021/04/30 06:13:04;;;;;;;35.30;32.90;;;9.70;66.20;;;;;;5093756;28;20255;-77
2021/04/30 06:15:33;;;;;;;35.55;33.05;;;9.70;65.20;;;;;;5093048;28;20191;-77
2021/04/30 06:17:59;;;;;;;36.95;33.95;;;9.80;65.20;;;;;;5093360;28;20201;-77
2021/04/30 06:20:26;;;;;;;35.75;33.28;;;9.90;64.30;;;;;;5093542;28;20215;-77
2021/04/30 06:22:52;;;;;;;35.33;32.75;;;9.80;64.40;;;;;;5093493;28;20282;-77
2021/04/30 06:25:18;;;;;;;34.80;32.60;;;9.80;64.30;;;;;;5093319;28;20202;-79
2021/04/30 06:27:45;;;;;;;34.10;31.67;;;9.90;63.90;;;;;;5092629;28;20198;-77
2021/04/30 06:30:12;;;;;;;34.83;32.42;;;9.90;64.10;;;;;;5093240;28;20336;-77
2021/04/30 06:32:42;;;;;;;34.55;32.17;;;9.90;63.30;;;;;;5093183;28;20195;-77
2021/04/30 06:35:10;;;;;;;36.70;34.20;;;9.90;63.00;;;;;;5093200;28;20200;-77
2021/04/30 06:37:37;;;;;;;35.10;32.70;;;9.70;63.50;;;;;;5092910;28;20281;-78
2021/04/30 06:40:05;;;;;;;34.03;31.80;;;9.60;64.20;;;;;;5095632;28;20234;-78
2021/04/30 06:42:32;;;;;;;39.33;36.63;;;9.50;64.50;;;;;;5095632;28;20238;-77
2021/04/30 06:44:58;;;;;;;35.03;32.72;;;9.40;65.20;;;;;;5095329;28;20219;-77
2021/04/30 06:47:24;;;;;;;36.65;33.63;;;9.60;64.90;;;;;;5094577;28;20211;-78
2021/04/30 06:49:53;;;;;;;34.47;32.28;;;9.70;64.20;;;;;;5095598;28;20199;-77
2021/04/30 06:52:19;;;;;;;37.15;34.78;;;9.60;63.40;;;;;;5095697;28;20195;-77
2021/04/30 06:54:46;;;;;;;34.60;32.15;;;9.50;64.20;;;;;;5094816;28;20222;-78
2021/04/30 06:57:16;;;;;;;36.00;33.40;;;9.70;63.20;;;;;;5093272;28;20254;-78
2021/04/30 06:59:42;;;;;;;38.50;35.05;;;9.60;63.90;;;;;;5092814;28;20742;-77
2021/04/30 07:02:09;;;;;;;38.40;35.97;;;9.40;64.80;;;;;;5092452;28;20626;-77
2021/04/30 07:04:35;;;;;;;38.50;35.80;;;9.60;64.90;;;;;;5093293;28;20233;-77
2021/04/30 07:07:02;;;;;;;40.00;36.03;;;9.60;64.40;;;;;;5092262;28;20286;-77
2021/04/30 07:09:29;;;;;;;36.85;33.85;;;9.70;64.70;;;;;;5092468;28;20197;-78
2021/04/30 07:11:55;;;;;;;36.75;33.50;;;9.60;63.70;;;;;;5092442;28;20656;-78
2021/04/30 07:14:22;;;;;;;35.55;33.15;;;9.50;64.70;;;;;;5092388;28;20648;-78
2021/04/30 07:16:48;;;;;;;36.60;33.90;;;9.50;64.80;;;;;;5091896;28;20199;-79
2021/04/30 07:19:15;;;;;;;38.63;35.78;;;9.50;64.10;;;;;;5092608;28;20191;-77
2021/04/30 07:21:41;;;;;;;38.40;35.72;;;9.50;64.30;;;;;;5092570;28;20284;-77
2021/04/30 07:24:09;;;;;;;37.40;34.80;;;9.50;65.50;;;;;;5092513;28;20278;-77
2021/04/30 07:26:36;;;;;;;36.03;33.53;;;9.50;65.00;;;;;;5091449;28;20309;-77
2021/04/30 07:29:02;;;;;;;35.17;32.88;;;9.50;64.70;;;;;;5092482;28;20195;-77
2021/04/30 07:31:29;;;;;;;34.60;32.20;;;9.60;64.00;;;;;;5092442;28;20230;-77
2021/04/30 07:33:55;;;;;;;37.75;35.25;;;9.70;65.40;;;;;;5092546;28;20242;-76
2021/04/30 07:36:21;;;;;;;36.15;33.60;;;9.90;64.20;;;;;;5091626;28;20340;-76
2021/04/30 07:38:48;;;;;;;35.65;33.05;;;10.00;63.50;;;;;;5092070;28;20199;-76
2021/04/30 07:41:16;;;;;;;35.22;32.75;;;10.20;63.10;;;;;;5092050;28;20219;-76
2021/04/30 07:43:42;;;;;;;34.67;32.20;;;10.10;63.50;;;;;;5091991;28;20226;-76
2021/04/30 07:46:09;;;;;;;36.10;33.60;;;10.10;63.70;;;;;;5091531;28;20199;-76
2021/04/30 07:48:35;;;;;;;35.83;33.22;;;10.10;63.40;;;;;;5091966;28;20207;-76
2021/04/30 07:51:02;;;;;;;38.63;35.85;;;10.10;64.10;;;;;;5092079;28;20253;-76
2021/04/30 07:53:29;;;;;;;37.92;34.75;;;10.10;64.10;;;;;;5092279;28;20592;-76
2021/04/30 07:55:56;;;;;;;35.30;32.90;;;10.10;64.60;;;;;;5095821;28;20305;-76
2021/04/30 07:58:25;;;;;;;35.75;33.28;;;10.20;64.50;;;;;;5096510;28;20207;-77
2021/04/30 08:00:54;;;;;;;37.17;34.28;;;10.20;64.20;;;;;;5096039;28;20616;-77
2021/04/30 08:03:21;;;;;;;36.05;33.53;;;10.40;63.60;;;;;;5095954;28;20711;-77
2021/04/30 08:05:48;;;;;;;36.72;34.00;;;10.40;63.80;;;;;;5095665;28;20199;-77
2021/04/30 08:08:15;;;;;;;37.03;33.97;;;10.30;63.90;;;;;;5096580;28;20203;-77
2021/04/30 08:10:42;;;;;;;38.60;35.33;;;10.30;64.80;;;;;;5097057;28;20215;-77
2021/04/30 08:13:08;;;;;;;41.60;38.83;;;10.40;63.60;;;;;;5096516;28;20191;-77
2021/04/30 08:15:36;;;;;;;38.63;34.92;;;10.40;64.40;;;;;;5095366;28;20311;-77
2021/04/30 08:18:02;;;;;;;36.63;34.22;;;10.30;63.70;;;;;;5095648;28;20653;-77
2021/04/30 08:20:29;;;;;;;34.47;32.28;;;10.30;63.70;;;;;;5095632;28;20302;-77
2021/04/30 08:22:55;;;;;;;35.25;32.85;;;10.20;64.00;;;;;;5095626;28;20203;-77
2021/04/30 08:25:22;;;;;;;35.58;33.20;;;10.20;64.10;;;;;;5095495;28;20616;-76
2021/04/30 08:27:48;;;;;;;38.08;35.50;;;10.20;65.50;;;;;;5094674;27;20203;-77
2021/04/30 08:30:17;;;;;;;36.22;33.55;;;10.10;64.90;;;;;;5095732;28;20221;-77
2021/04/30 08:32:45;;;;;;;33.83;31.52;;;10.10;64.30;;;;;;5095688;28;20565;-75
2021/04/30 08:35:11;;;;;;;36.05;33.35;;;9.90;64.50;;;;;;5095320;28;20357;-75
2021/04/30 08:37:38;;;;;;;34.08;31.77;;;9.90;64.90;;;;;;5094991;28;20731;-77
2021/04/30 08:40:06;;;;;;;36.10;33.42;;;10.00;64.80;;;;;;5095754;28;20199;-77
2021/04/30 08:42:33;;;;;;;33.63;31.42;;;10.10;64.60;;;;;;5095500;28;20195;-77
2021/04/30 08:45:00;;;;;;;34.53;32.22;;;10.00;64.60;;;;;;5095470;28;20706;-78
2021/04/30 08:47:26;;;;;;;35.95;32.95;;;10.00;64.70;;;;;;5094351;28;20217;-77
2021/04/30 08:49:56;;;;;;;35.90;33.40;;;10.10;64.90;;;;;;5095726;28;20199;-77
2021/04/30 08:52:23;;;;;;;34.20;31.80;;;10.20;65.20;;;;;;5094986;28;20253;-77
2021/04/30 08:54:52;;;;;;;34.97;32.30;;;10.40;64.00;;;;;;5095214;28;20314;-77
2021/04/30 08:57:23;;;;;;;34.78;32.28;;;10.50;63.30;;;;;;5094934;28;20203;-77
2021/04/30 08:59:54;;;;;;;34.72;32.20;;;10.50;63.00;;;;;;5095704;28;20298;-77
2021/04/30 09:02:23;;;;;;;35.00;32.50;;;10.60;62.10;;;;;;5095633;28;20195;-77
2021/04/30 09:04:50;;;;;;;40.13;36.20;;;10.40;62.80;;;;;;5094082;28;20268;-77
2021/04/30 09:07:20;;;;;;;36.38;33.78;;;10.40;64.00;;;;;;5093785;28;20199;-77
2021/04/30 09:09:57;;;;;;;38.03;35.25;;;10.30;64.00;;;;;;5095408;28;20199;-77
2021/04/30 09:12:24;;;;;;;37.13;34.03;;;10.30;64.50;;;;;;5095110;28;20591;-77
2021/04/30 09:14:51;;;;;;;36.30;33.60;;;10.10;65.40;;;;;;5094762;28;20748;-76
2021/04/30 09:17:18;;;;;;;38.60;35.70;;;10.10;65.80;;;;;;5094298;28;20195;-76
2021/04/30 09:19:47;;;;;;;36.55;33.72;;;9.80;66.40;;;;;;5094901;28;20555;-77
2021/04/30 09:22:15;;;;;;;36.70;33.90;;;9.60;66.90;;;;;;5094767;28;20277;-77
2021/04/30 09:24:43;;;;;;;39.13;36.30;;;9.50;67.80;;;;;;5094784;28;20272;-77
2021/04/30 09:27:09;;;;;;;37.97;34.97;;;9.60;68.20;;;;;;5093946;28;20739;-77
2021/04/30 09:29:37;;;;;;;37.40;34.72;;;9.70;68.60;;;;;;5094548;28;20284;-77
2021/04/30 09:32:10;;;;;;;37.40;34.78;;;9.70;68.70;;;;;;5094343;28;20222;-76
2021/04/30 09:34:37;;;;;;;37.10;34.47;;;9.70;68.60;;;;;;5094507;28;20673;-77
2021/04/30 09:37:10;;;;;;;37.40;34.47;;;9.50;69.30;;;;;;5093560;28;20290;-76
2021/04/30 09:39:58;;;;;;;35.90;33.30;;;9.60;68.90;;;;;;5094301;28;20715;-76
2021/04/30 09:42:26;;;;;;;37.72;35.03;;;9.50;68.90;;;;;;5094247;28;20191;-76
2021/04/30 09:44:54;;;;;;;38.70;35.78;;;9.30;69.60;;;;;;5094126;28;20302;-76
2021/04/30 09:47:23;;;;;;;39.30;36.25;;;9.40;70.10;;;;;;5093495;28;20290;-77
2021/04/30 09:49:51;;;;;;;37.25;34.72;;;9.60;69.80;;;;;;5094077;28;20277;-77
2021/04/30 09:52:19;;;;;;;37.55;34.65;;;9.50;70.30;;;;;;5094071;28;20203;-77
2021/04/30 09:54:45;;;;;;;38.50;35.60;;;9.50;70.40;;;;;;5093965;28;20227;-76
2021/04/30 09:57:15;;;;;;;40.05;35.97;;;9.50;69.70;;;;;;5093131;28;20202;-76
2021/04/30 09:59:44;;;;;;;37.40;34.70;;;9.50;70.20;;;;;;5093940;28;20603;-76
2021/04/30 10:02:13;;;;;;;38.25;35.50;;;9.50;70.00;;;;;;5093807;28;20305;-76
2021/04/30 10:04:42;;;;;;;36.65;34.05;;;9.50;70.10;;;;;;5093732;28;20302;-77
2021/04/30 10:07:10;;;;;;;39.30;35.95;;;9.40;70.70;;;;;;5093194;28;20207;-77
2021/04/30 10:09:37;;;;;;;40.30;37.00;;;9.30;71.20;;;;;;5093502;28;20195;-77
2021/04/30 10:12:22;;;;;;;38.15;35.30;;;9.40;71.40;;;;;;5093716;28;20376;-77
2021/04/30 10:14:49;;;;;;;40.88;37.97;;;9.30;71.80;;;;;;5093746;28;20248;-77
2021/04/30 10:17:16;;;;;;;38.53;35.50;;;9.40;71.90;;;;;;5092427;28;20203;-77
2021/04/30 10:19:44;;;;;;;41.22;38.15;;;9.50;71.70;;;;;;5093623;28;20687;-77
2021/04/30 10:22:16;;;;;;;46.67;41.13;;;9.40;72.20;;;;;;5093311;28;20700;-77
2021/04/30 10:24:46;;;;;;;43.33;39.85;;;9.30;72.50;;;;;;5093430;28;20219;-78
2021/04/30 10:27:16;;;;;;;39.33;36.22;;;9.40;72.70;;;;;;5092541;28;20196;-77
2021/04/30 10:29:47;;;;;;;39.90;36.90;;;9.40;72.80;;;;;;5093333;28;20199;-77
2021/04/30 10:32:15;;;;;;;37.20;34.30;;;9.50;72.80;;;;;;5092954;28;20215;-77
2021/04/30 10:34:45;;;;;;;40.53;37.67;;;9.40;73.10;;;;;;5093352;28;20285;-76
2021/04/30 10:37:20;;;;;;;41.60;38.55;;;9.40;73.10;;;;;;5092648;28;20614;-77
2021/04/30 10:39:55;;;;;;;42.85;39.45;;;9.30;73.40;;;;;;5093182;28;20623;-77
2021/04/30 10:42:28;;;;;;;40.53;37.63;;;9.20;74.20;;;;;;5093303;28;20194;-77
2021/04/30 10:45:01;;;;;;;41.92;38.72;;;9.20;74.70;;;;;;5092878;28;20226;-77
2021/04/30 10:47:28;;;;;;;41.28;38.05;;;9.10;74.80;;;;;;5092357;28;20228;-77
2021/04/30 10:50:11;;;;;;;43.90;40.63;;;9.10;75.40;;;;;;5092780;28;20286;-77
2021/04/30 10:52:38;;;;;;;44.58;40.85;;;9.10;75.60;;;;;;5091110;28;20262;-77
2021/04/30 10:55:06;;;;;;;42.28;38.88;;;9.10;76.00;;;;;;5092900;28;20244;-77
2021/04/30 10:57:47;;;;;;;43.22;39.83;;;9.10;75.70;;;;;;5092133;28;20202;-77
2021/04/30 11:00:16;;;;;;;42.38;39.00;;;9.10;77.40;;;;;;5092917;28;20699;-77
2021/04/30 11:02:43;;;;;;;43.65;40.25;;;9.30;76.70;;;;;;5092855;28;20285;-77
2021/04/30 11:05:13;;;;;;;42.65;39.47;;;9.00;76.40;;;;;;5092586;28;20248;-77
2021/04/30 11:07:43;;;;;;;41.40;38.30;;;8.90;77.30;;;;;;5092180;28;20195;-77
2021/04/30 11:10:49;;;;;;;45.72;42.05;;;8.60;77.70;;;;;;5092688;28;20688;-77
2021/04/30 11:13:17;;;;;;;40.28;36.97;;;8.70;79.90;;;;;;5086244;28;20218;-77
2021/04/30 11:15:56;;;;;;;41.60;38.60;;;8.60;76.30;;;;;;5092146;28;20227;-77
2021/04/30 11:18:24;;;;;;;41.17;37.92;;;8.40;76.30;;;;;;5092506;28;20198;-77
2021/04/30 11:21:05;;;;;;;43.00;39.47;;;8.30;78.40;;;;;;5092755;28;20229;-77
2021/04/30 11:23:39;;;;;;;42.22;38.78;;;8.10;78.10;;;;;;5092623;28;20254;-77
2021/04/30 11:26:11;;;;;;;44.00;40.45;;;8.20;78.20;;;;;;5092280;28;20295;-77
2021/04/30 11:29:06;;;;;;;42.78;39.38;;;8.00;77.70;;;;;;5091256;28;20203;-77
2021/04/30 11:31:34;;;;;;;42.72;39.13;;;7.80;80.20;;;;;;5093085;28;20223;-77
2021/04/30 11:34:21;;;;;;;43.67;40.15;;;7.90;80.20;;;;;;5093826;28;20200;-77
2021/04/30 11:36:56;;;;;;;42.15;38.75;;;7.90;80.70;;;;;;5093307;28;20566;-77
2021/04/30 11:39:27;;;;;;;41.90;38.53;;;8.00;80.60;;;;;;5092976;28;20201;-77
2021/04/30 11:41:58;;;;;;;42.90;39.75;;;8.20;79.40;;;;;;5092112;28;20351;-76
2021/04/30 11:44:24;;;;;;;42.67;38.70;;;8.00;79.40;;;;;;5092188;28;20258;-77
2021/04/30 11:47:02;;;;;;;43.17;39.30;;;7.80;80.70;;;;;;5091345;28;20603;-76
2021/04/30 11:49:28;;;;;;;44.15;40.53;;;7.90;82.30;;;;;;5092294;28;20283;-76
2021/04/30 11:51:55;;;;;;;38.13;35.20;;;8.00;80.40;;;;;;5091954;28;20267;-77
2021/04/30 11:54:28;;;;;;;39.80;36.53;;;8.00;80.20;;;;;;5092510;28;20202;-78
2021/04/30 11:57:01;;;;;;;39.03;35.88;;;7.90;80.70;;;;;;5092197;28;20205;-78
2021/04/30 11:59:28;;;;;;;39.88;36.65;;;7.90;80.60;;;;;;5092513;28;20267;-78
2021/04/30 12:02:04;;;;;;;39.60;36.45;;;7.80;82.20;;;;;;5092222;28;20304;-77
2021/04/30 12:04:43;;;;;;;40.22;37.00;;;7.70;82.90;;;;;;5092442;28;20335;-78
2021/04/30 12:07:11;;;;;;;39.88;36.45;;;7.80;83.50;;;;;;5092404;28;20263;-77
2021/04/30 12:09:38;;;;;;;37.72;34.72;;;7.80;82.10;;;;;;5093845;28;20282;-78
2021/04/30 12:12:21;;;;;;;36.10;33.20;;;7.60;82.70;;;;;;5092834;28;20577;-77
2021/04/30 12:14:54;;;;;;;36.97;34.10;;;7.40;83.70;;;;;;5093076;28;20202;-79
2021/04/30 12:17:26;;;;;;;38.55;35.42;;;7.40;84.70;;;;;;5092238;28;20225;-79
2021/04/30 12:20:08;;;;;;;37.60;34.35;;;7.50;84.60;;;;;;5092176;28;20651;-77
2021/04/30 12:22:35;;;;;;;36.55;33.70;;;7.60;84.80;;;;;;5092565;28;20232;-78
2021/04/30 12:25:27;;;;;;;36.95;33.85;;;7.60;84.90;;;;;;5091849;28;20240;-79
2021/04/30 12:27:54;;;;;;;37.55;34.63;;;7.70;85.00;;;;;;5091960;28;20208;-78
2021/04/30 12:30:28;;;;;;;38.17;35.28;;;7.80;84.70;;;;;;5091707;28;20220;-78
2021/04/30 12:32:56;;;;;;;38.50;35.30;;;7.80;83.40;;;;;;5091883;28;20321;-78
2021/04/30 12:35:24;;;;;;;35.17;32.58;;;7.80;83.60;;;;;;5091468;28;20232;-78
2021/04/30 12:37:51;;;;;;;36.30;33.70;;;7.80;82.80;;;;;;5091244;28;20224;-76
2021/04/30 12:40:23;;;;;;;36.63;33.80;;;7.80;83.10;;;;;;5092708;28;20224;-77